createdAt,value
2019-06-01T00:01:02.817Z,9.48
2019-06-01T00:03:34.731Z,9.30
2019-06-01T00:06:06.121Z,8.25
2019-06-01T00:08:37.185Z,8.70
2019-06-01T00:11:08.189Z,8.03
2019-06-01T00:13:45.604Z,7.67
2019-06-01T00:16:16.042Z,8.00
2019-06-01T00:18:48.357Z,8.25
2019-06-01T00:21:23.840Z,10.60
2019-06-01T00:24:03.065Z,10.80
2019-06-01T00:26:33.637Z,9.08
2019-06-01T00:29:06.811Z,8.10
2019-06-01T00:31:38.757Z,6.67
2019-06-01T00:34:09.936Z,8.80
2019-06-01T00:36:43.788Z,9.43
2019-06-01T00:39:18.393Z,10.65
2019-06-01T00:41:50.233Z,9.08
2019-06-01T00:44:24.269Z,10.65
2019-06-01T00:46:54.997Z,8.55
2019-06-01T00:49:25.826Z,7.17
2019-06-01T00:51:57.146Z,8.93
2019-06-01T00:54:31.124Z,12.23
2019-06-01T00:57:14.543Z,8.63
2019-06-01T00:59:48.078Z,8.80
2019-06-01T01:02:20.836Z,9.30
2019-06-01T01:05:21.221Z,9.65
2019-06-01T01:07:53.542Z,10.58
2019-06-01T01:10:33.504Z,10.35
2019-06-01T01:13:20.350Z,12.90
2019-06-01T01:16:06.007Z,9.35
2019-06-01T01:19:11.326Z,10.10
2019-06-01T01:21:42.200Z,11.33
2019-06-01T01:24:15.023Z,9.88
2019-06-01T01:26:46.622Z,10.18
2019-06-01T01:29:18.145Z,10.60
2019-06-01T01:31:49.178Z,12.05
2019-06-01T01:34:20.177Z,8.50
2019-06-01T01:36:53.059Z,11.35
2019-06-01T01:39:26.111Z,11.80
2019-06-01T01:42:02.625Z,11.50
2019-06-01T01:44:34.221Z,11.22
2019-06-01T01:47:05.472Z,10.43
2019-06-01T01:49:52.080Z,10.05
2019-06-01T01:52:22.657Z,9.35
2019-06-01T01:54:54.735Z,13.10
2019-06-01T01:57:26.539Z,11.65
2019-06-01T01:59:57.421Z,12.98
2019-06-01T02:02:32.196Z,11.30
2019-06-01T02:05:03.860Z,14.25
2019-06-01T02:07:36.461Z,14.05
2019-06-01T02:10:07.893Z,13.70
2019-06-01T02:12:41.436Z,13.85
2019-06-01T02:15:17.931Z,14.20
2019-06-01T02:17:50.421Z,11.83
2019-06-01T02:20:24.518Z,12.10
2019-06-01T02:23:28.430Z,13.10
2019-06-01T02:26:12.253Z,15.88
2019-06-01T02:28:45.458Z,14.83
2019-06-01T02:31:41.415Z,13.65
2019-06-01T02:34:06.318Z,15.03
2019-06-01T02:36:58.020Z,13.32
2019-06-01T02:42:59.180Z,13.83
2019-06-01T02:45:43.019Z,11.18
2019-06-01T02:48:24.903Z,11.70
2019-06-01T02:50:59.908Z,13.43
2019-06-01T02:53:31.208Z,14.40
2019-06-01T02:56:04.190Z,14.75
2019-06-01T02:58:36.338Z,12.78
2019-06-01T03:01:35.980Z,12.68
2019-06-01T03:04:10.736Z,16.05
2019-06-01T03:06:53.767Z,13.25
2019-06-01T03:09:27.031Z,14.43
2019-06-01T03:12:02.473Z,13.93
2019-06-01T03:14:48.029Z,14.83
2019-06-01T03:17:23.681Z,12.98
2019-06-01T03:20:11.695Z,14.85
2019-06-01T03:22:44.805Z,16.15
2019-06-01T03:25:16.062Z,13.18
2019-06-01T03:28:02.131Z,15.55
2019-06-01T03:30:45.912Z,14.40
2019-06-01T03:33:17.662Z,16.85
2019-06-01T03:35:49.379Z,15.60
2019-06-01T03:38:38.901Z,15.15
2019-06-01T03:41:10.387Z,12.68
2019-06-01T03:43:40.955Z,17.02
2019-06-01T03:46:13.051Z,18.35
2019-06-01T03:48:44.499Z,16.30
2019-06-01T03:51:30.672Z,17.52
2019-06-01T03:54:06.906Z,15.93
2019-06-01T03:56:42.738Z,14.95
2019-06-01T03:59:14.948Z,22.02
2019-06-01T04:01:47.248Z,16.32
2019-06-01T04:04:18.686Z,17.92
2019-06-01T04:06:54.961Z,16.55
2019-06-01T04:09:25.888Z,17.50
2019-06-01T04:12:09.777Z,21.23
2019-06-01T04:14:40.612Z,17.27
2019-06-01T04:17:12.244Z,20.43
2019-06-01T04:19:44.977Z,17.87
2019-06-01T04:22:16.742Z,17.10
2019-06-01T04:24:59.526Z,17.62
2019-06-01T04:27:30.692Z,15.93
2019-06-01T04:30:02.532Z,20.30
2019-06-01T04:32:48.540Z,18.48
2019-06-01T04:35:07.232Z,18.12
2019-06-01T04:37:38.218Z,17.23
2019-06-01T04:40:09.557Z,19.30
2019-06-01T04:42:40.426Z,20.08
2019-06-01T04:45:20.964Z,17.05
2019-06-01T04:47:51.456Z,17.90
2019-06-01T04:50:24.213Z,16.50
2019-06-01T04:52:55.572Z,18.48
2019-06-01T04:55:25.638Z,19.07
2019-06-01T04:58:00.742Z,23.40
2019-06-01T05:00:31.940Z,22.22
2019-06-01T05:03:07.166Z,18.52
2019-06-01T05:05:37.977Z,19.23
2019-06-01T05:08:12.666Z,17.25
2019-06-01T05:10:45.546Z,15.80
2019-06-01T05:13:23.464Z,16.45
2019-06-01T05:15:54.532Z,18.50
2019-06-01T05:18:25.417Z,18.20
2019-06-01T05:20:57.040Z,14.55
2019-06-01T05:23:40.591Z,17.42
2019-06-01T05:26:12.851Z,17.07
2019-06-01T05:28:50.577Z,13.72
2019-06-01T05:31:25.218Z,21.12
2019-06-01T06:38:03.627Z,11.22
2019-06-01T06:41:00.870Z,8.98
2019-06-01T06:44:38.632Z,9.60
2019-06-01T06:51:34.672Z,12.00
2019-06-01T06:54:37.954Z,12.73
2019-06-01T06:57:09.329Z,10.65
2019-06-01T07:00:30.507Z,9.78
2019-06-01T07:03:35.044Z,8.73
2019-06-01T07:10:24.316Z,9.18
2019-06-01T07:16:38.087Z,9.55
2019-06-01T07:19:48.041Z,7.87
2019-06-01T07:22:54.884Z,9.08
2019-06-01T07:25:34.287Z,11.08
2019-06-01T07:28:36.029Z,9.45
2019-06-01T07:35:42.805Z,8.68
2019-06-01T07:42:24.463Z,9.35
2019-06-01T07:57:48.012Z,8.93
2019-06-01T08:00:18.952Z,9.35
2019-06-01T08:02:49.766Z,8.70
2019-06-01T08:05:23.268Z,10.25
2019-06-01T08:07:53.402Z,7.15
2019-06-01T08:10:26.000Z,11.18
2019-06-01T08:12:56.891Z,9.40
2019-06-01T08:15:28.360Z,9.78
2019-06-01T08:17:59.851Z,8.33
2019-06-01T09:22:36.749Z,5.12
2019-06-01T09:25:12.885Z,5.85
2019-06-01T09:27:47.988Z,5.65
2019-06-01T09:30:20.785Z,9.00
2019-06-01T09:32:51.068Z,3.77
2019-06-01T09:35:21.683Z,4.42
2019-06-01T09:37:52.298Z,4.53
2019-06-01T09:40:22.593Z,4.90
